createdAt,value
2018-04-08T00:00:27.111Z,56.20
2018-04-08T00:02:57.618Z,57.20
2018-04-08T00:05:26.702Z,56.90
2018-04-08T00:07:56.629Z,57.10
2018-04-08T00:10:26.764Z,57.30
2018-04-08T00:12:56.891Z,57.90
2018-04-08T00:15:38.777Z,57.60
2018-04-08T00:18:09.781Z,57.80
2018-04-08T00:23:09.230Z,58.30
2018-04-08T00:25:39.370Z,59.40
2018-04-08T00:28:09.322Z,62.90
2018-04-08T00:30:42.300Z,64.50
2018-04-08T00:33:11.815Z,64.90
2018-04-08T00:35:44.003Z,65.10
2018-04-08T00:38:14.417Z,65.30
2018-04-08T00:40:46.412Z,65.40
2018-04-08T00:43:17.084Z,65.70
2018-04-08T00:45:51.527Z,65.80
2018-04-08T00:48:21.279Z,64.50
2018-04-08T00:50:55.106Z,65.10
2018-04-08T00:53:25.278Z,64.80
2018-04-08T00:55:57.908Z,65.00
2018-04-08T00:58:27.373Z,65.10
2018-04-08T01:01:01.268Z,64.60
2018-04-08T01:03:31.101Z,63.30
2018-04-08T01:06:05.519Z,62.50
2018-04-08T01:08:36.150Z,61.10
2018-04-08T01:11:09.690Z,61.00
2018-04-08T01:13:39.366Z,59.50
2018-04-08T01:16:22.252Z,59.30
2018-04-08T01:18:51.753Z,58.60
2018-04-08T01:21:21.178Z,57.90
2018-04-08T01:23:50.990Z,57.50
2018-04-08T01:26:23.162Z,57.00
2018-04-08T01:28:53.790Z,57.10
2018-04-08T01:31:25.751Z,56.20
2018-04-08T01:33:56.070Z,56.10
2018-04-08T01:36:29.656Z,55.20
2018-04-08T01:39:00.043Z,54.60
2018-04-08T01:41:33.061Z,54.10
2018-04-08T01:44:02.591Z,53.50
2018-04-08T01:46:35.427Z,53.10
2018-04-08T01:49:04.952Z,52.80
2018-04-08T01:51:47.961Z,52.60
2018-04-08T01:54:18.279Z,52.40
2018-04-08T01:56:47.864Z,52.30
2018-04-08T01:59:18.035Z,52.50
2018-04-08T02:01:47.587Z,52.10
2018-04-08T02:04:17.897Z,52.70
2018-04-08T02:06:50.290Z,53.00
2018-04-08T02:09:19.858Z,53.50
2018-04-08T02:11:55.179Z,54.30
2018-04-08T02:14:24.636Z,53.70
2018-04-08T02:17:00.885Z,53.50
2018-04-08T02:19:31.943Z,54.20
2018-04-08T02:22:05.149Z,54.50
2018-04-08T02:24:34.796Z,54.70
2018-04-08T02:27:11.342Z,55.00
2018-04-08T02:29:40.850Z,55.70
2018-04-08T02:32:12.986Z,55.70
2018-04-08T02:34:42.952Z,55.40
2018-04-08T02:37:18.024Z,55.60
2018-04-08T02:39:49.376Z,54.90
2018-04-08T02:42:19.660Z,56.20
2018-04-08T02:44:49.308Z,56.10
2018-04-08T02:47:23.305Z,56.30
2018-04-08T02:49:54.932Z,57.40
2018-04-08T02:52:26.259Z,58.30
2018-04-08T02:54:56.773Z,59.10
2018-04-08T02:57:40.020Z,59.50
2018-04-08T03:00:10.157Z,60.60
2018-04-08T03:02:40.645Z,60.90
2018-04-08T03:05:11.171Z,60.60
2018-04-08T03:07:41.266Z,61.60
2018-04-08T03:10:11.246Z,61.80
2018-04-08T03:12:42.839Z,62.20
2018-04-08T03:15:13.301Z,61.90
2018-04-08T03:17:55.902Z,61.60
2018-04-08T03:20:26.797Z,61.50
2018-04-08T03:25:27.281Z,60.20
2018-04-08T03:27:58.058Z,59.50
2018-04-08T03:30:29.001Z,59.50
2018-04-08T03:32:59.818Z,59.10
2018-04-08T03:37:59.749Z,58.50
2018-04-08T03:40:29.397Z,58.10
2018-04-08T03:43:03.101Z,57.70
2018-04-08T03:45:33.339Z,57.70
2018-04-08T03:48:06.752Z,57.80
2018-04-08T03:50:36.821Z,57.70
2018-04-08T03:53:10.358Z,58.20
2018-04-08T03:55:40.678Z,57.40
2018-04-08T03:58:14.460Z,57.40
2018-04-08T04:00:45.123Z,58.00
2018-04-08T04:03:15.960Z,57.40
2018-04-08T04:05:45.782Z,57.50
2018-04-08T04:08:19.682Z,57.50
2018-04-08T04:10:49.830Z,57.70
2018-04-08T04:13:31.919Z,58.00
2018-04-08T04:16:01.808Z,58.40
2018-04-08T04:18:40.596Z,59.10
2018-04-08T04:21:26.984Z,59.50
2018-04-08T04:26:33.712Z,60.10
2018-04-08T04:29:03.590Z,60.60
2018-04-08T04:31:34.498Z,61.80
2018-04-08T04:34:05.406Z,61.30
2018-04-08T04:36:36.788Z,61.50
2018-04-08T04:39:06.748Z,61.00
2018-04-08T04:41:39.890Z,61.00
2018-04-08T04:44:09.107Z,60.90
2018-04-08T04:46:45.378Z,61.00
2018-04-08T04:49:17.825Z,61.00
2018-04-08T04:51:48.458Z,61.10
2018-04-08T04:54:19.075Z,61.10
2018-04-08T04:56:49.458Z,61.20
2018-04-08T04:59:18.979Z,61.20
2018-04-08T05:01:52.094Z,61.20
2018-04-08T05:04:22.103Z,60.80
2018-04-08T05:06:55.728Z,60.50
2018-04-08T05:09:25.953Z,60.40
2018-04-08T05:12:00.451Z,60.10
2018-04-08T05:14:30.132Z,60.00
2018-04-08T05:17:04.329Z,59.80
2018-04-08T05:22:09.095Z,59.70
2018-04-08T05:24:38.705Z,58.80
2018-04-08T05:27:13.232Z,58.40
2018-04-08T05:29:43.997Z,57.70
2018-04-08T05:32:17.370Z,57.10
2018-04-08T05:34:46.880Z,56.90
2018-04-08T05:37:18.683Z,56.50
2018-04-08T05:42:22.536Z,56.30
2018-04-08T05:44:52.534Z,56.10
2018-04-08T05:47:25.563Z,55.90
2018-04-08T05:49:56.374Z,55.70
2018-04-08T05:52:28.717Z,55.40
2018-04-08T05:54:59.702Z,55.00
2018-04-08T05:57:31.686Z,54.70
2018-04-08T06:00:02.624Z,54.40
2018-04-08T06:02:35.778Z,53.50
2018-04-08T06:05:05.369Z,52.90
2018-04-08T06:07:39.025Z,52.80
2018-04-08T06:10:09.408Z,52.60
2018-04-08T06:12:42.407Z,52.50
2018-04-08T06:15:13.581Z,52.50
2018-04-08T06:17:43.825Z,52.30
2018-04-08T06:20:14.918Z,52.30
2018-04-08T06:22:47.474Z,52.20
2018-04-08T06:25:16.863Z,51.90
2018-04-08T06:30:29.126Z,52.00
2018-04-08T06:32:58.941Z,51.00
2018-04-08T06:35:29.016Z,52.00
2018-04-08T06:38:03.140Z,52.30
2018-04-08T06:40:33.699Z,51.80
2018-04-08T06:43:05.948Z,52.20
2018-04-08T06:45:35.843Z,53.50
2018-04-08T06:48:10.624Z,56.90
2018-04-08T06:50:40.492Z,58.20
2018-04-08T06:53:14.212Z,59.90
2018-04-08T06:55:44.357Z,62.30
2018-04-08T06:58:15.756Z,63.50
2018-04-08T07:00:46.403Z,66.20
2018-04-08T07:03:19.099Z,66.50
2018-04-08T07:05:49.262Z,66.60
2018-04-08T07:08:22.054Z,66.80
2018-04-08T07:13:23.912Z,66.30
2018-04-08T07:15:54.284Z,66.00
2018-04-08T07:18:36.503Z,66.10
2018-04-08T07:21:06.066Z,66.50
2018-04-08T07:23:36.125Z,66.70
2018-04-08T07:26:05.621Z,66.20
2018-04-08T07:28:36.967Z,65.50
2018-04-08T07:31:06.362Z,63.50
2018-04-08T07:33:39.591Z,61.00
2018-04-08T07:36:08.658Z,56.90
2018-04-08T07:38:38.078Z,53.10
2018-04-08T07:41:08.387Z,48.50
2018-04-08T07:43:38.273Z,46.10
2018-04-08T07:46:08.219Z,47.00
2018-04-08T07:48:38.390Z,46.70
2018-04-08T07:51:08.336Z,46.50
2018-04-08T07:53:38.189Z,44.20
2018-04-08T07:56:08.447Z,43.20
2018-04-08T07:58:37.904Z,44.10
2018-04-08T08:01:08.068Z,44.90
2018-04-08T08:03:38.177Z,43.60
2018-04-08T08:06:08.765Z,41.60
2018-04-08T08:08:38.165Z,40.90
2018-04-08T08:11:09.005Z,40.50
2018-04-08T08:13:39.586Z,42.30
2018-04-08T08:16:13.098Z,44.00
2018-04-08T08:18:43.180Z,44.60
2018-04-08T08:21:16.867Z,45.60
2018-04-08T08:23:45.990Z,45.60
2018-04-08T08:26:19.115Z,44.60
2018-04-08T08:28:48.067Z,41.20
2018-04-08T08:31:30.367Z,38.80
2018-04-08T08:34:00.019Z,38.90
2018-04-08T08:49:43.766Z,40.20
2018-04-08T08:52:13.270Z,40.40
2018-04-08T08:54:44.052Z,42.00
2018-04-08T08:57:13.661Z,42.70
2018-04-08T08:59:43.194Z,46.00
2018-04-08T09:02:13.213Z,45.20
2018-04-08T09:04:46.578Z,43.80
2018-04-08T09:07:16.327Z,44.30
2018-04-08T09:09:50.378Z,44.80
2018-04-08T09:12:19.511Z,45.30
2018-04-08T09:14:53.222Z,45.70
2018-04-08T09:17:22.961Z,42.90
2018-04-08T09:19:56.906Z,41.60
2018-04-08T09:22:26.621Z,42.30
2018-04-08T09:25:00.154Z,43.60
2018-04-08T09:27:29.902Z,43.20
2018-04-08T09:30:02.177Z,43.70
2018-04-08T09:32:32.585Z,43.80
2018-04-08T09:35:06.716Z,43.80
2018-04-08T09:37:35.918Z,44.20
2018-04-08T09:40:09.757Z,44.80
2018-04-08T09:42:39.135Z,44.80
2018-04-08T09:45:08.024Z,44.20
2018-04-08T09:47:37.261Z,43.80
2018-04-08T09:50:05.764Z,43.20
2018-04-08T09:52:34.552Z,41.50
2018-04-08T09:55:04.737Z,42.10
2018-04-08T09:57:40.872Z,42.30
2018-04-08T10:00:13.841Z,42.80
2018-04-08T10:02:47.328Z,41.60
2018-04-08T10:07:57.455Z,39.60
2018-04-08T10:10:36.434Z,39.60
2018-04-08T10:13:08.932Z,39.00
2018-04-08T10:15:43.536Z,39.40
2018-04-08T10:18:21.496Z,38.90
2018-04-08T10:20:55.191Z,38.20
2018-04-08T10:26:02.796Z,39.70
2018-04-08T10:31:13.163Z,39.10
2018-04-08T10:33:54.349Z,39.10
2018-04-08T10:36:28.587Z,38.60
2018-04-08T10:39:04.010Z,37.70
2018-04-08T10:44:13.772Z,36.80
2018-04-08T10:46:46.722Z,36.20
2018-04-08T10:49:25.924Z,36.50
2018-04-08T10:52:04.413Z,37.30
2018-04-08T10:54:38.477Z,36.80
2018-04-08T10:57:24.337Z,37.30
2018-04-08T10:59:59.973Z,37.20
2018-04-08T11:02:33.370Z,36.90
2018-04-08T11:05:13.282Z,36.60
2018-04-08T11:07:49.549Z,37.50
2018-04-08T11:10:24.878Z,37.50
2018-04-08T11:15:27.627Z,37.40
2018-04-08T11:17:56.154Z,37.50
2018-04-08T11:20:34.243Z,36.80
2018-04-08T11:23:10.991Z,36.80
2018-04-08T11:25:51.898Z,37.40
2018-04-08T11:31:05.782Z,36.90
2018-04-08T11:33:42.944Z,36.00
2018-04-08T11:36:16.731Z,35.30
2018-04-08T11:38:53.075Z,35.00
2018-04-08T11:41:28.933Z,34.90
2018-04-08T11:44:04.162Z,34.60
2018-04-08T11:46:38.238Z,34.00
2018-04-08T11:49:15.610Z,34.40
2018-04-08T11:51:54.797Z,33.70
2018-04-08T11:54:27.765Z,33.30
2018-04-08T11:57:02.988Z,33.60
2018-04-08T11:59:37.326Z,32.80
2018-04-08T12:07:38.786Z,35.10
2018-04-08T12:10:11.924Z,37.00
2018-04-08T12:15:22.872Z,35.70
2018-04-08T12:17:58.936Z,36.20
2018-04-08T12:20:33.287Z,35.50
2018-04-08T12:23:17.505Z,36.20
2018-04-08T12:28:27.779Z,35.80
2018-04-08T12:31:05.848Z,36.60
2018-04-08T12:33:40.542Z,35.50
2018-04-08T12:36:24.063Z,34.50
2018-04-08T12:38:59.194Z,34.60
2018-04-08T12:41:34.065Z,35.30
2018-04-08T12:44:11.962Z,34.40
2018-04-08T12:46:48.959Z,33.80
2018-04-08T12:49:30.432Z,35.10
2018-04-08T12:52:04.387Z,33.80
2018-04-08T12:54:38.787Z,33.10
2018-04-08T12:57:13.329Z,32.60
2018-04-08T12:59:49.630Z,32.00
2018-04-08T13:02:26.233Z,32.30
2018-04-08T13:05:02.635Z,31.20
2018-04-08T13:21:08.191Z,30.10
2018-04-08T13:26:37.642Z,30.60
2018-04-08T13:29:16.712Z,30.70
2018-04-08T13:31:50.868Z,32.40
2018-04-08T13:34:28.203Z,32.00
2018-04-08T13:37:09.252Z,31.10
2018-04-08T13:39:45.056Z,31.00
2018-04-08T13:42:21.138Z,31.60
2018-04-08T13:44:59.534Z,31.10
2018-04-08T13:47:37.281Z,32.40
2018-04-08T13:50:20.286Z,31.70
2018-04-08T13:52:56.948Z,31.70
2018-04-08T13:55:31.214Z,32.30
2018-04-08T13:58:08.125Z,32.70
2018-04-08T14:00:44.067Z,31.70
2018-04-08T14:03:24.711Z,31.40
2018-04-08T14:06:00.326Z,30.90
2018-04-08T14:08:36.489Z,31.50
2018-04-08T14:11:16.701Z,31.50
2018-04-08T14:13:56.591Z,32.10
2018-04-08T14:16:35.682Z,32.10
2018-04-08T14:19:11.083Z,32.40
2018-04-08T14:21:49.786Z,31.20
2018-04-08T14:24:27.903Z,32.30
2018-04-08T14:27:05.217Z,31.90
2018-04-08T14:29:52.022Z,32.00
2018-04-08T14:32:36.673Z,32.80
2018-04-08T14:35:13.020Z,33.10
2018-04-08T14:38:08.634Z,33.80
2018-04-08T14:43:30.079Z,34.10
2018-04-08T14:46:07.341Z,34.20
2018-04-08T14:48:45.799Z,33.90
2018-04-08T14:51:22.303Z,32.60
2018-04-08T14:53:59.350Z,31.60
2018-04-08T14:56:38.792Z,32.50
2018-04-08T14:59:15.517Z,33.40
2018-04-08T15:01:49.699Z,33.60
2018-04-08T15:04:24.311Z,33.70
2018-04-08T15:09:49.032Z,33.50
2018-04-08T15:12:26.512Z,33.00
2018-04-08T15:15:00.572Z,32.40
2018-04-08T15:17:33.468Z,31.70
2018-04-08T15:22:41.096Z,31.10
2018-04-08T15:25:39.878Z,31.60
2018-04-08T15:28:25.743Z,31.30
2018-04-08T15:31:00.334Z,31.70
2018-04-08T15:33:30.697Z,31.90
2018-04-08T15:36:00.751Z,31.80
2018-04-08T15:38:29.995Z,32.90
2018-04-08T15:40:59.553Z,32.50
2018-04-08T15:43:28.045Z,32.10
2018-04-08T15:45:58.712Z,31.70
2018-04-08T15:48:30.444Z,31.40
2018-04-08T15:53:29.900Z,33.70
2018-04-08T15:56:00.037Z,35.00
2018-04-08T15:58:30.685Z,35.70
2018-04-08T16:00:59.449Z,35.30
2018-04-08T16:03:27.913Z,35.70
2018-04-08T16:05:56.420Z,36.10
2018-04-08T16:08:28.851Z,36.20
2018-04-08T16:10:58.757Z,34.30
2018-04-08T16:13:33.683Z,34.70
2018-04-08T16:16:02.439Z,36.00
2018-04-08T16:18:36.976Z,35.90
2018-04-08T16:21:06.206Z,37.20
2018-04-08T16:23:37.807Z,36.90
2018-04-08T16:26:07.676Z,36.20
2018-04-08T16:28:39.018Z,36.20
2018-04-08T16:31:11.609Z,35.90
2018-04-08T16:33:41.528Z,37.10
2018-04-08T16:36:11.674Z,36.90
2018-04-08T16:38:48.539Z,36.60
2018-04-08T16:41:19.031Z,36.60
2018-04-08T16:43:49.705Z,37.50
2018-04-08T16:46:21.293Z,37.00
2018-04-08T16:48:51.508Z,36.50
2018-04-08T16:51:34.471Z,37.50
2018-04-08T16:54:06.100Z,36.10
2018-04-08T16:56:40.442Z,36.40
2018-04-08T16:59:12.958Z,36.00
2018-04-08T17:01:43.636Z,35.20
2018-04-08T17:04:15.732Z,35.70
2018-04-08T17:09:32.945Z,35.40
2018-04-08T17:12:02.625Z,35.50
2018-04-08T17:14:35.552Z,35.80
2018-04-08T17:19:38.042Z,36.20
2018-04-08T17:24:39.080Z,37.40
2018-04-08T17:27:08.042Z,37.70
2018-04-08T17:29:39.756Z,37.60
2018-04-08T17:32:12.436Z,38.30
2018-04-08T17:34:42.913Z,38.40
2018-04-08T17:37:14.120Z,38.80
2018-04-08T17:39:45.297Z,39.50
2018-04-08T17:42:16.545Z,40.60
2018-04-08T17:44:48.083Z,41.10
2018-04-08T17:47:17.929Z,40.90
2018-04-08T17:49:49.135Z,40.10
2018-04-08T17:52:20.669Z,41.70
2018-04-08T17:54:52.143Z,42.20
2018-04-08T17:57:24.726Z,42.70
2018-04-08T17:59:53.621Z,43.00
2018-04-08T18:02:24.873Z,43.40
2018-04-08T18:04:56.956Z,44.00
2018-04-08T18:07:26.185Z,43.40
2018-04-08T18:09:56.072Z,43.20
2018-04-08T18:12:28.957Z,42.50
2018-04-08T18:14:58.502Z,42.20
2018-04-08T18:17:31.260Z,41.60
2018-04-08T18:20:02.356Z,40.90
2018-04-08T18:22:34.495Z,41.10
2018-04-08T18:25:05.040Z,40.50
2018-04-08T18:27:56.032Z,40.70
2018-04-08T18:30:26.500Z,40.90
2018-04-08T18:48:48.738Z,42.50
2018-04-08T18:51:31.847Z,43.00
2018-04-08T18:54:07.108Z,44.20
2018-04-08T18:56:43.326Z,45.00
2018-04-08T18:59:26.843Z,46.30
2018-04-08T19:02:04.239Z,46.00
2018-04-08T19:04:41.225Z,46.30
2018-04-08T19:07:12.947Z,46.30
2018-04-08T19:09:48.250Z,46.60
2018-04-08T19:12:22.827Z,47.30
2018-04-08T19:15:03.118Z,46.70
2018-04-08T19:17:48.083Z,47.20
2018-04-08T19:23:08.616Z,46.40
2018-04-08T19:25:44.986Z,46.00
2018-04-08T19:28:18.130Z,46.10
2018-04-08T19:30:50.716Z,46.20
2018-04-08T19:33:24.317Z,46.00
2018-04-08T19:41:20.259Z,45.60
2018-04-08T19:43:57.351Z,46.10
2018-04-08T19:51:51.740Z,45.10
2018-04-08T19:54:24.521Z,45.20
2018-04-08T19:56:54.838Z,44.90
2018-04-08T19:59:40.918Z,45.00
2018-04-08T20:09:09.884Z,44.60
2018-04-08T20:11:50.143Z,44.80
2018-04-08T20:14:39.797Z,45.20
2018-04-08T20:17:13.327Z,45.10
2018-04-08T20:19:48.616Z,45.10
2018-04-08T20:22:21.144Z,45.10
2018-04-08T20:25:03.388Z,44.60
2018-04-08T20:27:36.297Z,45.00
2018-04-08T20:30:10.548Z,44.80
2018-04-08T20:32:41.722Z,45.00
2018-04-08T20:35:16.952Z,45.70
2018-04-08T20:37:51.916Z,45.70
2018-04-08T20:43:24.070Z,47.70
2018-04-08T20:46:05.104Z,49.70
2018-04-08T20:48:44.612Z,50.40
2018-04-08T20:51:17.283Z,51.50
2018-04-08T20:53:50.705Z,51.70
2018-04-08T20:56:30.123Z,50.90
2018-04-08T20:59:07.272Z,50.30
2018-04-08T21:01:42.277Z,49.30
2018-04-08T21:04:18.670Z,48.50
2018-04-08T21:06:55.478Z,48.50
2018-04-08T21:09:26.464Z,48.10
2018-04-08T21:12:00.343Z,48.20
2018-04-08T21:14:33.701Z,48.40
2018-04-08T21:17:07.107Z,48.50
2018-04-08T21:19:43.505Z,48.60
2018-04-08T21:22:20.748Z,48.70
2018-04-08T21:27:38.494Z,48.30
2018-04-08T21:30:11.878Z,48.40
2018-04-08T21:32:48.619Z,48.60
2018-04-08T21:35:24.926Z,48.80
2018-04-08T21:37:58.819Z,49.10
2018-04-08T21:40:31.449Z,49.30
2018-04-08T21:48:37.222Z,49.60
2018-04-08T21:51:16.447Z,49.10
2018-04-08T21:56:23.088Z,50.50
2018-04-08T21:58:55.956Z,50.60
2018-04-08T22:01:27.387Z,51.90
2018-04-08T22:06:33.707Z,52.90
2018-04-08T22:09:07.192Z,53.90
2018-04-08T22:11:36.656Z,53.80
2018-04-08T22:14:08.700Z,54.50
2018-04-08T22:16:41.918Z,55.60
2018-04-08T22:19:15.580Z,56.10
2018-04-08T22:21:47.580Z,56.20
2018-04-08T22:26:49.877Z,57.60
2018-04-08T22:32:06.637Z,57.70
2018-04-08T22:34:37.047Z,57.40
2018-04-08T22:37:08.252Z,58.10
2018-04-08T22:42:11.657Z,58.00
2018-04-08T22:44:40.294Z,58.60
2018-04-08T22:47:11.218Z,58.40
2018-04-08T22:49:45.081Z,58.50
2018-04-08T22:52:16.708Z,58.30
2018-04-08T22:54:48.256Z,59.00
2018-04-08T22:57:17.829Z,58.90
2018-04-08T22:59:49.007Z,58.80
2018-04-08T23:02:18.885Z,58.90
2018-04-08T23:04:50.264Z,59.00
2018-04-08T23:07:21.751Z,59.00
2018-04-08T23:09:53.536Z,59.70
2018-04-08T23:12:25.731Z,59.90
2018-04-08T23:14:57.012Z,60.70
2018-04-08T23:17:26.586Z,61.10
2018-04-08T23:19:56.696Z,61.20
2018-04-08T23:22:26.218Z,61.40
2018-04-08T23:24:59.524Z,61.90
2018-04-08T23:27:29.309Z,61.60
2018-04-08T23:30:03.318Z,62.30
2018-04-08T23:32:33.062Z,63.00
2018-04-08T23:35:03.971Z,62.80
2018-04-08T23:37:33.725Z,64.00
2018-04-08T23:40:08.540Z,65.00
2018-04-08T23:42:40.325Z,65.30
2018-04-08T23:45:14.473Z,65.90
2018-04-08T23:47:43.059Z,65.20
2018-04-08T23:50:14.285Z,65.40
2018-04-08T23:52:43.261Z,65.50
2018-04-08T23:55:16.244Z,65.20
2018-04-08T23:57:46.812Z,65.70
